createdAt,value
2022-12-05T00:00:10.655Z,5.89
2022-12-05T00:01:41.077Z,6.49
2022-12-05T00:02:43.266Z,7.00
2022-12-05T00:03:47.037Z,7.34
2022-12-05T00:04:48.858Z,7.63
2022-12-05T00:05:50.610Z,7.86
2022-12-05T00:06:52.425Z,8.05
2022-12-05T00:07:54.487Z,8.11
2022-12-05T00:08:57.931Z,7.79
2022-12-05T00:10:01.782Z,7.24
2022-12-05T00:11:03.689Z,6.65
2022-12-05T00:12:05.688Z,6.13
2022-12-05T00:13:07.805Z,5.67
2022-12-05T00:14:11.092Z,5.25
2022-12-05T00:15:13.160Z,5.01
2022-12-05T00:16:18.321Z,5.21
2022-12-05T00:17:20.148Z,5.70
2022-12-05T00:18:21.909Z,6.22
2022-12-05T00:19:23.713Z,6.67
2022-12-05T00:20:26.735Z,7.07
2022-12-05T00:21:31.813Z,7.39
2022-12-05T00:22:38.180Z,7.67
2022-12-05T00:23:40.387Z,7.88
2022-12-05T00:24:42.334Z,8.07
2022-12-05T00:25:44.164Z,8.01
2022-12-05T00:26:45.911Z,7.59
2022-12-05T00:27:48.236Z,7.04
2022-12-05T00:28:51.281Z,6.49
2022-12-05T00:29:52.993Z,5.98
2022-12-05T00:30:54.835Z,5.54
2022-12-05T00:31:56.959Z,5.15
2022-12-05T00:32:58.820Z,4.84
2022-12-05T00:34:03.160Z,4.89
2022-12-05T00:35:05.419Z,5.31
2022-12-05T00:36:13.999Z,5.84
2022-12-05T00:37:15.771Z,6.38
2022-12-05T00:38:17.546Z,6.79
2022-12-05T00:39:19.289Z,7.13
2022-12-05T00:40:21.051Z,7.43
2022-12-05T00:41:25.687Z,7.64
2022-12-05T00:42:27.455Z,7.82
2022-12-05T00:43:29.233Z,8.00
2022-12-05T00:44:30.982Z,7.96
2022-12-05T00:45:33.896Z,7.57
2022-12-05T00:46:36.405Z,7.00
2022-12-05T00:47:38.633Z,6.44
2022-12-05T00:48:41.204Z,5.94
2022-12-05T00:49:42.949Z,5.48
2022-12-05T00:50:44.715Z,5.08
2022-12-05T00:51:46.621Z,4.83
2022-12-05T00:52:48.444Z,5.01
2022-12-05T00:53:50.650Z,5.47
2022-12-05T00:54:52.424Z,5.98
2022-12-05T00:55:54.234Z,6.44
2022-12-05T00:56:58.799Z,6.85
2022-12-05T00:58:00.638Z,7.19
2022-12-05T00:59:04.582Z,7.44
2022-12-05T01:00:07.511Z,7.65
2022-12-05T01:01:11.436Z,7.81
2022-12-05T01:02:13.302Z,7.97
2022-12-05T01:03:15.121Z,7.90
2022-12-05T01:04:20.747Z,7.47
2022-12-05T01:05:22.457Z,6.87
2022-12-05T01:06:25.793Z,6.30
2022-12-05T01:07:27.524Z,5.78
2022-12-05T01:08:29.711Z,5.34
2022-12-05T01:09:31.444Z,4.94
2022-12-05T01:10:33.218Z,4.65
2022-12-05T01:11:40.910Z,4.74
2022-12-05T01:12:43.285Z,5.21
2022-12-05T01:13:46.068Z,5.71
2022-12-05T01:14:47.861Z,6.18
2022-12-05T01:15:50.848Z,6.57
2022-12-05T01:16:55.217Z,6.92
2022-12-05T01:17:57.085Z,7.23
2022-12-05T01:19:01.137Z,7.48
2022-12-05T01:20:03.899Z,7.71
2022-12-05T01:21:06.371Z,7.89
2022-12-05T01:22:08.205Z,7.92
2022-12-05T01:23:10.557Z,7.58
2022-12-05T01:24:12.803Z,7.05
2022-12-05T01:25:14.535Z,6.51
2022-12-05T01:26:19.384Z,6.01
2022-12-05T01:27:21.195Z,5.55
2022-12-05T01:28:23.052Z,5.16
2022-12-05T01:29:25.642Z,4.97
2022-12-05T01:30:27.512Z,5.20
2022-12-05T01:31:32.369Z,5.69
2022-12-05T01:32:34.595Z,6.23
2022-12-05T01:33:36.522Z,6.69
2022-12-05T01:34:38.270Z,7.07
2022-12-05T01:35:41.568Z,7.40
2022-12-05T01:36:44.127Z,7.68
2022-12-05T01:37:45.967Z,7.91
2022-12-05T01:38:48.214Z,8.08
2022-12-05T01:39:49.974Z,7.96
2022-12-05T01:41:00.643Z,7.50
2022-12-05T01:42:05.407Z,6.87
2022-12-05T01:43:17.100Z,6.30
2022-12-05T01:44:18.700Z,5.74
2022-12-05T01:45:41.767Z,5.33
2022-12-05T01:46:44.769Z,4.85
2022-12-05T01:47:47.412Z,4.68
2022-12-05T01:48:53.619Z,4.94
2022-12-05T01:49:55.931Z,5.47
2022-12-05T01:51:00.455Z,6.00
2022-12-05T01:52:07.844Z,6.49
2022-12-05T01:53:09.805Z,6.92
2022-12-05T01:54:12.639Z,7.24
2022-12-05T01:55:19.042Z,7.51
2022-12-05T01:56:21.174Z,7.76
2022-12-05T01:57:24.926Z,7.94
2022-12-05T01:58:37.445Z,8.02
2022-12-05T01:59:48.828Z,7.66
2022-12-05T02:00:51.230Z,7.02
2022-12-05T02:01:53.131Z,6.45
2022-12-05T02:02:59.596Z,5.94
2022-12-05T02:04:02.789Z,5.44
2022-12-05T02:05:11.826Z,5.03
2022-12-05T02:06:14.323Z,4.76
2022-12-05T02:07:16.233Z,4.93
2022-12-05T02:08:18.927Z,5.39
2022-12-05T02:09:22.194Z,5.89
2022-12-05T02:10:25.805Z,6.33
2022-12-05T02:11:30.975Z,6.71
2022-12-05T02:12:33.277Z,7.04
2022-12-05T02:13:54.290Z,7.32
2022-12-05T02:15:14.052Z,7.65
2022-12-05T02:16:30.179Z,7.89
2022-12-05T02:17:51.775Z,7.84
2022-12-05T02:18:59.382Z,7.21
2022-12-05T02:20:15.299Z,6.57
2022-12-05T02:21:35.659Z,5.90
2022-12-05T02:23:14.834Z,5.31
2022-12-05T02:24:53.951Z,4.69
2022-12-05T02:26:25.074Z,4.39
2022-12-05T02:27:45.735Z,4.94
2022-12-05T02:29:18.061Z,5.62
2022-12-05T02:30:23.529Z,6.27
2022-12-05T02:31:48.563Z,6.67
2022-12-05T02:33:07.194Z,7.07
2022-12-05T02:34:29.273Z,7.39
2022-12-05T02:35:38.559Z,7.63
2022-12-05T02:36:49.604Z,7.83
2022-12-05T02:38:22.101Z,7.72
2022-12-05T02:39:44.292Z,7.01
2022-12-05T02:41:27.331Z,6.26
2022-12-05T02:42:51.311Z,5.43
2022-12-05T02:43:55.977Z,4.89
2022-12-05T02:45:15.181Z,4.75
2022-12-05T02:46:22.747Z,5.14
2022-12-05T02:47:31.316Z,5.67
2022-12-05T02:48:37.301Z,6.17
2022-12-05T02:49:42.308Z,6.60
2022-12-05T02:50:47.877Z,6.94
2022-12-05T02:51:56.802Z,7.22
2022-12-05T02:53:03.825Z,7.48
2022-12-05T02:54:13.016Z,7.69
2022-12-05T02:55:19.019Z,7.84
2022-12-05T02:56:22.150Z,7.65
2022-12-05T02:57:26.889Z,7.13
2022-12-05T02:58:36.042Z,6.51
2022-12-05T02:59:37.812Z,5.91
2022-12-05T03:00:44.523Z,5.41
2022-12-05T03:01:47.637Z,4.97
2022-12-05T03:02:56.341Z,4.59
2022-12-05T03:04:02.095Z,4.34
2022-12-05T03:05:30.354Z,4.55
2022-12-05T03:06:43.178Z,5.25
2022-12-05T03:07:50.031Z,5.84
2022-12-05T03:09:13.304Z,6.34
2022-12-05T03:10:21.348Z,6.85
2022-12-05T03:11:23.685Z,7.15
2022-12-05T03:12:42.257Z,7.39
2022-12-05T03:14:00.203Z,7.66
2022-12-05T03:15:15.821Z,7.87
2022-12-05T03:16:36.044Z,7.62
2022-12-05T03:17:48.145Z,6.95
2022-12-05T03:18:56.710Z,6.28
2022-12-05T03:20:08.140Z,5.72
2022-12-05T03:21:20.919Z,5.20
2022-12-05T03:22:31.926Z,4.80
2022-12-05T03:23:39.823Z,4.87
2022-12-05T03:24:42.665Z,5.34
2022-12-05T03:26:03.759Z,5.87
2022-12-05T03:27:45.279Z,6.49
2022-12-05T03:28:52.778Z,7.08
2022-12-05T03:30:10.153Z,7.35
2022-12-05T03:31:17.645Z,7.62
2022-12-05T03:32:45.813Z,7.81
2022-12-05T03:33:54.834Z,7.90
2022-12-05T03:35:11.888Z,7.53
2022-12-05T03:36:23.252Z,6.85
2022-12-05T03:37:37.167Z,6.21
2022-12-05T03:39:11.542Z,5.59
2022-12-05T03:40:32.015Z,4.94
2022-12-05T03:41:50.256Z,4.58
2022-12-05T03:43:09.109Z,4.86
2022-12-05T03:44:24.500Z,5.52
2022-12-05T03:45:56.917Z,6.14
2022-12-05T03:47:12.514Z,6.77
2022-12-05T03:48:27.494Z,7.17
2022-12-05T03:49:43.272Z,7.49
2022-12-05T03:50:49.628Z,7.76
2022-12-05T03:52:04.281Z,7.94
2022-12-05T03:53:21.320Z,7.75
2022-12-05T03:54:26.378Z,7.12
2022-12-05T03:55:33.575Z,6.54
2022-12-05T03:56:41.996Z,5.96
2022-12-05T03:57:55.842Z,5.44
2022-12-05T03:59:10.125Z,4.98
2022-12-05T04:00:19.012Z,4.71
2022-12-05T04:01:25.763Z,5.01
2022-12-05T04:02:45.427Z,5.55
2022-12-05T04:03:53.998Z,6.23
2022-12-05T04:05:13.549Z,6.74
2022-12-05T04:06:33.446Z,7.24
2022-12-05T04:07:40.822Z,7.60
2022-12-05T04:08:56.309Z,7.83
2022-12-05T04:10:07.206Z,7.94
2022-12-05T04:11:17.120Z,7.56
2022-12-05T04:12:27.521Z,6.90
2022-12-05T04:13:59.736Z,6.27
2022-12-05T04:15:13.212Z,5.53
2022-12-05T04:16:42.133Z,5.04
2022-12-05T04:17:53.912Z,4.59
2022-12-05T04:19:18.849Z,4.71
2022-12-05T04:20:42.096Z,5.37
2022-12-05T04:21:50.520Z,6.08
2022-12-05T04:22:52.387Z,6.52
2022-12-05T04:24:12.923Z,6.90
2022-12-05T04:25:35.652Z,7.32
2022-12-05T04:26:46.897Z,7.65
2022-12-05T04:27:59.616Z,7.83
2022-12-05T04:29:23.104Z,7.54
2022-12-05T04:30:34.095Z,6.83
2022-12-05T04:31:44.005Z,6.20
2022-12-05T04:32:52.160Z,5.65
2022-12-05T04:34:01.294Z,5.18
2022-12-05T04:35:11.894Z,4.78
2022-12-05T04:36:25.635Z,4.69
2022-12-05T04:37:35.027Z,5.16
2022-12-05T04:38:46.009Z,5.79
2022-12-05T04:39:56.955Z,6.36
2022-12-05T04:41:06.406Z,6.86
2022-12-05T04:42:15.107Z,7.25
2022-12-05T04:43:20.571Z,7.54
2022-12-05T04:44:30.303Z,7.77
2022-12-05T04:45:33.995Z,7.84
2022-12-05T04:46:41.660Z,7.48
2022-12-05T04:47:51.782Z,6.89
2022-12-05T04:48:59.221Z,6.26
2022-12-05T04:50:04.326Z,5.72
2022-12-05T04:51:09.817Z,5.26
2022-12-05T04:52:13.534Z,4.87
2022-12-05T04:53:17.711Z,4.69
2022-12-05T04:54:29.743Z,4.97
2022-12-05T04:55:36.741Z,5.59
2022-12-05T04:56:43.973Z,6.20
2022-12-05T04:58:33.751Z,6.73
2022-12-05T04:59:36.365Z,7.38
2022-12-05T05:00:56.652Z,7.66
2022-12-05T05:02:06.732Z,7.94
2022-12-05T05:03:19.415Z,7.79
2022-12-05T05:04:29.409Z,7.21
2022-12-05T05:05:35.113Z,6.57
2022-12-05T05:06:39.550Z,6.02
2022-12-05T05:07:52.897Z,5.54
2022-12-05T05:08:56.996Z,5.06
2022-12-05T05:09:59.070Z,4.69
2022-12-05T05:11:14.635Z,4.46
2022-12-05T05:12:19.216Z,4.75
2022-12-05T05:13:21.486Z,5.31
2022-12-05T05:14:23.235Z,5.85
2022-12-05T05:15:25.093Z,6.35
2022-12-05T05:16:30.170Z,6.77
2022-12-05T05:17:31.998Z,7.12
2022-12-05T05:18:34.142Z,7.38
2022-12-05T05:19:36.011Z,7.62
2022-12-05T05:20:38.524Z,7.82
2022-12-05T05:21:42.422Z,7.88
2022-12-05T05:22:44.170Z,7.57
2022-12-05T05:23:46.694Z,7.03
2022-12-05T05:24:48.402Z,6.44
2022-12-05T05:25:56.845Z,5.90
2022-12-05T05:26:58.568Z,5.39
2022-12-05T05:28:00.316Z,4.98
2022-12-05T05:29:02.416Z,4.62
2022-12-05T05:30:04.906Z,4.48
2022-12-05T05:31:07.557Z,4.76
2022-12-05T05:32:09.372Z,5.28
2022-12-05T05:33:11.142Z,5.83
2022-12-05T05:34:16.155Z,6.33
2022-12-05T05:35:18.011Z,6.77
2022-12-05T05:36:21.729Z,7.12
2022-12-05T05:37:23.464Z,7.41
2022-12-05T05:38:25.235Z,7.65
2022-12-05T05:39:29.611Z,7.86
2022-12-05T05:40:31.391Z,7.80
2022-12-05T05:41:35.732Z,7.40
2022-12-05T05:42:42.561Z,6.82
2022-12-05T05:43:45.694Z,6.24
2022-12-05T05:44:47.697Z,5.74
2022-12-05T05:45:49.418Z,5.29
2022-12-05T05:46:51.264Z,4.90
2022-12-05T05:47:53.120Z,4.60
2022-12-05T05:48:55.192Z,4.67
2022-12-05T05:49:57.288Z,5.11
2022-12-05T05:51:00.322Z,5.67
2022-12-05T05:52:02.096Z,6.21
2022-12-05T05:53:03.863Z,6.68
2022-12-05T05:54:05.721Z,7.08
2022-12-05T05:55:09.221Z,7.42
2022-12-05T05:56:20.046Z,7.69
2022-12-05T05:57:23.109Z,7.93
2022-12-05T05:58:25.009Z,7.96
2022-12-05T05:59:26.777Z,7.62
2022-12-05T06:00:28.490Z,7.06
2022-12-05T06:01:31.082Z,6.49
2022-12-05T06:02:34.684Z,5.97
2022-12-05T06:03:38.066Z,5.47
2022-12-05T06:04:39.920Z,5.05
2022-12-05T06:05:41.679Z,4.69
2022-12-05T06:06:43.419Z,4.53
2022-12-05T06:07:45.222Z,4.81
2022-12-05T06:08:47.472Z,5.33
2022-12-05T06:09:49.249Z,5.90
2022-12-05T06:10:51.279Z,6.39
2022-12-05T06:11:53.004Z,6.79
2022-12-05T06:12:54.775Z,7.15
2022-12-05T06:14:01.074Z,7.43
2022-12-05T06:15:03.081Z,7.69
2022-12-05T06:16:08.158Z,7.89
2022-12-05T06:17:09.937Z,7.81
2022-12-05T06:18:11.767Z,7.36
2022-12-05T06:19:13.953Z,6.78
2022-12-05T06:20:15.829Z,6.23
2022-12-05T06:21:17.710Z,5.73
2022-12-05T06:22:19.461Z,5.30
2022-12-05T06:23:21.738Z,4.90
2022-12-05T06:24:23.521Z,4.65
2022-12-05T06:25:25.471Z,4.83
2022-12-05T06:26:27.253Z,5.32
2022-12-05T06:27:31.463Z,5.88
2022-12-05T06:28:33.310Z,6.40
2022-12-05T06:29:35.728Z,6.81
2022-12-05T06:30:38.597Z,7.17
2022-12-05T06:31:42.333Z,7.48
2022-12-05T06:32:44.143Z,7.74
2022-12-05T06:33:46.491Z,7.96
2022-12-05T06:34:48.223Z,7.99
2022-12-05T06:36:01.241Z,7.65
2022-12-05T06:37:03.117Z,6.97
2022-12-05T06:38:06.385Z,6.40
2022-12-05T06:39:09.008Z,5.87
2022-12-05T06:40:13.676Z,5.41
2022-12-05T06:41:18.985Z,5.03
2022-12-05T06:42:22.306Z,5.03
2022-12-05T06:43:24.433Z,5.43
2022-12-05T06:44:27.224Z,5.97
2022-12-05T06:45:29.057Z,6.48
2022-12-05T06:46:30.977Z,6.92
2022-12-05T06:47:32.721Z,7.30
2022-12-05T06:48:35.214Z,7.58
2022-12-05T06:49:38.222Z,7.83
2022-12-05T06:50:40.218Z,8.05
2022-12-05T06:51:41.979Z,8.19
2022-12-05T06:52:43.712Z,8.03
2022-12-05T06:53:45.664Z,7.52
2022-12-05T06:54:47.440Z,6.93
2022-12-05T06:56:05.201Z,6.37
2022-12-05T06:57:06.939Z,5.72
2022-12-05T06:58:08.649Z,5.29
2022-12-05T06:59:11.036Z,4.94
2022-12-05T07:00:32.387Z,4.96
2022-12-05T07:01:41.474Z,5.53
2022-12-05T07:02:43.718Z,6.12
2022-12-05T07:03:45.629Z,6.57
2022-12-05T07:04:47.361Z,6.98
2022-12-05T07:05:49.090Z,7.33
2022-12-05T07:06:52.853Z,7.62
2022-12-05T07:07:55.186Z,7.90
2022-12-05T07:08:57.302Z,8.10
2022-12-05T07:09:59.218Z,8.25
2022-12-05T07:11:02.707Z,8.09
2022-12-05T07:12:04.636Z,7.62
2022-12-05T07:13:06.438Z,7.04
2022-12-05T07:14:14.912Z,6.48
2022-12-05T07:15:26.541Z,5.87
2022-12-05T07:16:28.314Z,5.45
2022-12-05T07:17:30.153Z,5.14
2022-12-05T07:18:31.930Z,5.21
2022-12-05T07:19:34.047Z,5.64
2022-12-05T07:21:10.282Z,6.16
2022-12-05T07:21:57.508Z,6.79
2022-12-05T07:22:59.357Z,7.18
2022-12-05T07:24:01.160Z,7.49
2022-12-05T07:25:04.043Z,7.75
2022-12-05T07:26:07.661Z,7.99
2022-12-05T07:27:09.420Z,8.18
2022-12-05T07:28:11.197Z,8.15
2022-12-05T07:29:13.044Z,7.75
2022-12-05T07:30:14.963Z,7.17
2022-12-05T07:31:19.733Z,6.59
2022-12-05T07:32:21.557Z,6.05
2022-12-05T07:33:23.294Z,5.60
2022-12-05T07:34:25.129Z,5.22
2022-12-05T07:35:26.911Z,4.99
2022-12-05T07:36:28.684Z,5.21
2022-12-05T07:37:30.478Z,5.69
2022-12-05T07:38:32.584Z,6.21
2022-12-05T07:39:34.343Z,6.69
2022-12-05T07:40:37.587Z,7.09
2022-12-05T07:41:39.529Z,7.44
2022-12-05T07:42:41.935Z,7.74
2022-12-05T07:43:43.812Z,8.00
2022-12-05T07:44:45.574Z,8.19
2022-12-05T07:45:47.525Z,8.14
2022-12-05T07:46:49.316Z,7.72
2022-12-05T07:47:51.107Z,7.15
2022-12-05T07:48:53.863Z,6.60
2022-12-05T07:49:55.681Z,6.09
2022-12-05T07:51:03.439Z,5.65
2022-12-05T07:52:05.266Z,5.23
2022-12-05T07:53:07.068Z,5.02
2022-12-05T07:54:08.844Z,5.22
2022-12-05T07:55:10.872Z,5.70
2022-12-05T07:56:17.180Z,6.23
2022-12-05T07:57:19.078Z,6.76
2022-12-05T07:58:20.995Z,7.18
2022-12-05T07:59:22.798Z,7.55
2022-12-05T08:00:24.583Z,7.87
2022-12-05T08:01:28.943Z,8.13
2022-12-05T08:02:30.787Z,8.35
2022-12-05T08:03:32.826Z,8.42
2022-12-05T08:04:34.808Z,8.09
2022-12-05T08:05:37.609Z,7.55
2022-12-05T08:06:39.410Z,6.97
2022-12-05T08:07:42.027Z,6.44
2022-12-05T08:08:45.082Z,5.96
2022-12-05T08:09:46.808Z,5.54
2022-12-05T08:10:48.546Z,5.16
2022-12-05T08:11:52.748Z,4.82
2022-12-05T08:12:54.820Z,4.81
2022-12-05T08:13:58.200Z,5.21
2022-12-05T08:14:59.955Z,5.80
2022-12-05T08:16:07.838Z,6.33
2022-12-05T08:17:09.967Z,6.82
2022-12-05T08:18:11.761Z,7.21
2022-12-05T08:19:14.176Z,7.54
2022-12-05T08:20:16.079Z,7.80
2022-12-05T08:21:19.880Z,8.00
2022-12-05T08:22:21.635Z,8.18
2022-12-05T08:23:23.358Z,8.31
2022-12-05T08:24:25.225Z,8.10
2022-12-05T08:25:27.031Z,7.60
2022-12-05T08:26:32.757Z,7.04
2022-12-05T08:27:34.579Z,6.46
2022-12-05T08:28:36.919Z,5.99
2022-12-05T08:29:38.621Z,5.56
2022-12-05T08:30:40.502Z,5.21
2022-12-05T08:31:47.435Z,5.16
2022-12-05T08:32:49.247Z,5.56
2022-12-05T08:33:57.088Z,6.12
2022-12-05T08:35:00.502Z,6.87
2022-12-05T08:36:04.745Z,7.44
2022-12-05T08:37:06.542Z,7.84
2022-12-05T08:38:08.332Z,8.08
2022-12-05T08:39:15.022Z,8.27
2022-12-05T08:40:17.320Z,8.44
2022-12-05T08:41:19.621Z,8.41
2022-12-05T08:42:21.343Z,8.02
2022-12-05T08:43:23.099Z,7.46
2022-12-05T08:44:25.173Z,6.91
2022-12-05T08:45:26.987Z,6.40
2022-12-05T08:46:30.445Z,5.98
2022-12-05T08:47:32.697Z,5.58
2022-12-05T08:48:35.549Z,5.37
2022-12-05T08:49:37.334Z,5.58
2022-12-05T08:50:39.396Z,6.08
2022-12-05T08:51:42.817Z,6.58
2022-12-05T08:52:44.614Z,7.08
2022-12-05T08:53:46.406Z,7.49
2022-12-05T08:54:48.171Z,7.83
2022-12-05T08:55:50.026Z,8.13
2022-12-05T08:56:52.058Z,8.39
2022-12-05T08:57:53.912Z,8.58
2022-12-05T08:59:03.010Z,8.50
2022-12-05T09:00:07.824Z,7.96
2022-12-05T09:01:15.639Z,7.38
2022-12-05T09:02:17.539Z,6.78
2022-12-05T09:03:19.305Z,6.30
2022-12-05T09:04:21.131Z,5.87
2022-12-05T09:05:28.326Z,5.48
2022-12-05T09:06:32.820Z,5.24
2022-12-05T09:07:34.652Z,5.49
2022-12-05T09:08:37.435Z,5.98
2022-12-05T09:09:39.328Z,6.52
2022-12-05T09:10:41.239Z,7.02
2022-12-05T09:11:48.837Z,7.47
2022-12-05T09:12:51.348Z,7.87
2022-12-05T09:13:55.289Z,8.16
2022-12-05T09:14:57.522Z,8.38
2022-12-05T09:15:59.739Z,8.58
2022-12-05T09:17:01.639Z,8.67
2022-12-05T09:18:03.434Z,8.40
2022-12-05T09:19:05.871Z,7.88
2022-12-05T09:20:08.879Z,7.32
2022-12-05T09:21:19.059Z,6.79
2022-12-05T09:22:24.223Z,6.28
2022-12-05T09:23:25.958Z,5.87
2022-12-05T09:24:27.744Z,5.62
2022-12-05T09:25:29.536Z,5.78
2022-12-05T09:26:31.411Z,6.24
2022-12-05T09:27:33.260Z,6.75
2022-12-05T09:28:35.329Z,7.21
2022-12-05T09:29:37.467Z,7.64
2022-12-05T09:30:39.510Z,8.00
2022-12-05T09:31:43.081Z,8.26
2022-12-05T09:32:45.125Z,8.53
2022-12-05T09:33:48.880Z,8.74
2022-12-05T09:34:50.624Z,8.75
2022-12-05T09:35:52.386Z,8.39
2022-12-05T09:37:10.362Z,7.83
2022-12-05T09:38:15.953Z,7.08
2022-12-05T09:39:18.315Z,6.60
2022-12-05T09:40:20.219Z,6.18
2022-12-05T09:42:04.950Z,5.81
2022-12-05T09:43:09.115Z,5.48
2022-12-05T09:44:39.319Z,5.82
2022-12-05T09:46:00.591Z,6.62
2022-12-05T09:47:28.774Z,7.31
2022-12-05T09:48:31.755Z,7.91
2022-12-05T09:49:46.815Z,8.27
2022-12-05T09:50:56.879Z,8.61
2022-12-05T09:52:01.830Z,8.85
2022-12-05T09:53:09.263Z,8.93
2022-12-05T09:54:13.165Z,8.62
2022-12-05T09:55:19.219Z,8.08
2022-12-05T09:56:31.295Z,7.47
2022-12-05T09:57:42.855Z,6.85
2022-12-05T09:58:53.100Z,6.33
2022-12-05T09:59:54.985Z,5.91
2022-12-05T10:01:12.060Z,5.69
2022-12-05T10:02:50.720Z,6.02
2022-12-05T10:04:37.284Z,6.85
2022-12-05T10:06:00.548Z,7.71
2022-12-05T10:07:23.948Z,8.21
2022-12-05T10:08:47.265Z,8.57
2022-12-05T10:10:07.674Z,8.88
2022-12-05T10:11:30.706Z,9.00
2022-12-05T10:12:51.084Z,8.52
2022-12-05T10:14:07.758Z,7.77
2022-12-05T10:15:29.111Z,7.11
2022-12-05T10:16:37.749Z,6.47
2022-12-05T10:17:56.993Z,6.02
2022-12-05T10:19:06.719Z,5.65
2022-12-05T10:20:25.134Z,5.86
2022-12-05T10:21:47.959Z,6.47
2022-12-05T10:23:34.682Z,7.16
2022-12-05T10:24:45.219Z,7.87
2022-12-05T10:26:00.093Z,8.21
2022-12-05T10:27:08.617Z,8.55
2022-12-05T10:28:21.172Z,8.77
2022-12-05T10:29:35.254Z,8.88
2022-12-05T10:30:42.315Z,8.50
2022-12-05T10:31:48.398Z,7.92
2022-12-05T10:32:54.802Z,7.36
2022-12-05T10:34:09.982Z,6.84
2022-12-05T10:35:36.316Z,6.34
2022-12-05T10:36:38.117Z,5.87
2022-12-05T10:37:41.712Z,5.88
2022-12-05T10:38:45.860Z,6.30
2022-12-05T10:39:49.960Z,6.87
2022-12-05T10:40:58.270Z,7.44
2022-12-05T10:42:00.438Z,7.94
2022-12-05T10:43:03.792Z,8.33
2022-12-05T10:44:06.078Z,8.66
2022-12-05T10:45:16.248Z,8.92
2022-12-05T10:46:18.348Z,9.13
2022-12-05T10:47:20.251Z,9.13
2022-12-05T10:48:23.834Z,8.76
2022-12-05T10:49:28.070Z,8.21
2022-12-05T10:50:35.685Z,7.66
2022-12-05T10:51:38.481Z,7.14
2022-12-05T10:52:40.562Z,6.70
2022-12-05T10:53:46.448Z,6.33
2022-12-05T10:54:59.112Z,6.10
2022-12-05T10:56:29.193Z,6.37
2022-12-05T10:57:30.260Z,7.06
2022-12-05T10:58:32.125Z,7.66
2022-12-05T10:59:47.321Z,8.13
2022-12-05T11:00:55.156Z,8.57
2022-12-05T11:02:00.163Z,8.91
2022-12-05T11:03:06.314Z,9.18
2022-12-05T11:04:20.501Z,9.26
2022-12-05T11:05:31.680Z,8.87
2022-12-05T11:06:33.587Z,8.23
2022-12-05T11:07:49.573Z,7.69
2022-12-05T11:09:04.387Z,7.09
2022-12-05T11:10:26.952Z,6.61
2022-12-05T11:11:35.400Z,6.20
2022-12-05T11:12:39.523Z,6.21
2022-12-05T11:13:54.483Z,6.64
2022-12-05T11:15:03.027Z,7.27
2022-12-05T11:16:06.011Z,7.82
2022-12-05T11:17:25.977Z,8.27
2022-12-05T11:18:29.782Z,8.71
2022-12-05T11:19:37.668Z,9.02
2022-12-05T11:20:41.252Z,9.22
2022-12-05T11:21:43.910Z,9.02
2022-12-05T11:22:49.492Z,8.52
2022-12-05T11:23:51.274Z,7.93
2022-12-05T11:24:53.010Z,7.41
2022-12-05T11:25:57.865Z,6.97
2022-12-05T11:27:17.835Z,6.54
2022-12-05T11:28:19.789Z,6.07
2022-12-05T11:29:37.616Z,5.86
2022-12-05T11:30:39.392Z,6.16
2022-12-05T11:31:51.932Z,6.67
2022-12-05T11:33:19.571Z,7.29
2022-12-05T11:34:27.452Z,7.91
2022-12-05T11:35:29.265Z,8.31
2022-12-05T11:36:46.611Z,8.62
2022-12-05T11:38:05.426Z,8.94
2022-12-05T11:39:11.639Z,9.18
2022-12-05T11:40:28.926Z,9.03
2022-12-05T11:41:47.891Z,8.42
2022-12-05T11:43:10.364Z,7.73
2022-12-05T11:44:17.754Z,7.08
2022-12-05T11:45:53.678Z,6.63
2022-12-05T11:46:58.406Z,6.15
2022-12-05T11:48:35.877Z,6.28
2022-12-05T11:50:06.711Z,7.03
2022-12-05T11:51:23.614Z,7.79
2022-12-05T11:53:05.093Z,8.34
2022-12-05T11:54:35.649Z,8.90
2022-12-05T11:55:54.293Z,9.29
2022-12-05T11:57:26.531Z,9.23
2022-12-05T11:58:52.655Z,8.55
2022-12-05T12:00:16.397Z,7.81
2022-12-05T12:01:41.181Z,7.21
2022-12-05T12:03:01.597Z,6.72
2022-12-05T12:04:35.651Z,6.44
2022-12-05T12:06:10.243Z,6.92
2022-12-05T12:07:34.047Z,7.73
2022-12-05T12:08:56.909Z,8.36
2022-12-05T12:10:14.670Z,8.87
2022-12-05T12:11:46.566Z,9.26
2022-12-05T12:13:16.698Z,9.42
2022-12-05T12:14:51.057Z,8.87
2022-12-05T12:15:58.443Z,8.05
2022-12-05T12:17:10.091Z,7.53
2022-12-05T12:18:40.480Z,7.04
2022-12-05T12:19:47.870Z,6.51
2022-12-05T12:21:03.086Z,6.36
2022-12-05T12:22:29.114Z,6.77
2022-12-05T12:23:46.940Z,7.50
2022-12-05T12:25:30.415Z,8.12
2022-12-05T12:26:53.366Z,8.81
2022-12-05T12:28:05.186Z,9.22
2022-12-05T12:29:45.519Z,9.47
2022-12-05T12:31:05.782Z,9.16
2022-12-05T12:32:44.898Z,8.47
2022-12-05T12:34:11.763Z,7.62
2022-12-05T12:35:30.576Z,7.01
2022-12-05T12:36:47.700Z,6.55
2022-12-05T12:38:24.869Z,6.24
2022-12-05T12:39:47.378Z,6.67
2022-12-05T12:41:33.981Z,7.38
2022-12-05T12:43:03.920Z,8.21
2022-12-05T12:44:40.605Z,8.78
2022-12-05T12:46:16.374Z,9.25
2022-12-05T12:47:20.781Z,9.38
2022-12-05T12:48:29.874Z,8.99
2022-12-05T12:50:10.819Z,8.38
2022-12-05T12:51:14.547Z,7.53
2022-12-05T12:52:23.382Z,7.07
2022-12-05T12:53:52.952Z,6.65
2022-12-05T12:55:06.832Z,6.33
2022-12-05T12:56:20.505Z,6.68
2022-12-05T12:57:35.029Z,7.31
2022-12-05T12:58:55.208Z,7.95
2022-12-05T12:59:59.794Z,8.54
2022-12-05T13:01:21.746Z,8.91
2022-12-05T13:02:33.448Z,9.29
2022-12-05T13:03:51.384Z,9.45
2022-12-05T13:05:01.450Z,9.05
2022-12-05T13:06:13.598Z,8.48
2022-12-05T13:07:36.181Z,7.88
2022-12-05T13:08:44.074Z,7.30
2022-12-05T13:09:58.393Z,6.89
2022-12-05T13:11:06.451Z,6.50
2022-12-05T13:12:15.278Z,6.45
2022-12-05T13:13:25.243Z,6.89
2022-12-05T13:14:31.187Z,7.50
2022-12-05T13:15:44.650Z,8.06
2022-12-05T13:16:52.296Z,8.61
2022-12-05T13:17:55.183Z,9.02
2022-12-05T13:18:58.612Z,9.31
2022-12-05T13:20:01.629Z,9.53
2022-12-05T13:21:08.386Z,9.48
2022-12-05T13:22:13.176Z,9.03
2022-12-05T13:23:19.570Z,8.47
2022-12-05T13:24:27.244Z,7.90
2022-12-05T13:25:34.736Z,7.39
2022-12-05T13:26:48.427Z,6.95
2022-12-05T13:28:04.182Z,6.53
2022-12-05T13:29:06.280Z,6.38
2022-12-05T13:30:18.791Z,6.72
2022-12-05T13:31:35.914Z,7.33
2022-12-05T13:32:41.150Z,7.99
2022-12-05T13:33:47.608Z,8.48
2022-12-05T13:34:51.607Z,8.89
2022-12-05T13:36:23.232Z,9.21
2022-12-05T13:37:50.138Z,9.53
2022-12-05T13:39:19.943Z,9.19
2022-12-05T13:41:06.012Z,8.44
2022-12-05T13:42:24.457Z,7.60
2022-12-05T13:43:29.397Z,7.10
2022-12-05T13:44:45.712Z,6.73
2022-12-05T13:46:11.428Z,6.44
2022-12-05T13:47:33.083Z,6.81
2022-12-05T13:48:42.843Z,7.52
2022-12-05T13:49:53.055Z,8.10
2022-12-05T13:51:05.755Z,8.60
2022-12-05T13:52:24.013Z,9.01
2022-12-05T13:53:37.581Z,9.37
2022-12-05T13:54:48.979Z,9.50
2022-12-05T13:55:59.971Z,9.14
2022-12-05T13:57:02.779Z,8.54
2022-12-05T13:58:16.645Z,7.98
2022-12-05T13:59:56.434Z,7.40
2022-12-05T14:01:55.381Z,6.73
2022-12-05T14:03:04.892Z,6.42
2022-12-05T14:04:24.852Z,6.96
2022-12-05T14:05:42.541Z,7.92
2022-12-05T14:06:47.059Z,8.78
2022-12-05T14:07:56.484Z,9.22
2022-12-05T14:09:27.356Z,9.54
2022-12-05T14:10:29.006Z,9.42
2022-12-05T14:11:31.110Z,8.95
2022-12-05T14:12:53.880Z,8.40
2022-12-05T14:14:00.778Z,7.70
2022-12-05T14:27:25.456Z,9.38
2022-12-05T14:28:37.464Z,9.33
2022-12-05T14:30:11.943Z,8.79
2022-12-05T14:31:44.121Z,7.95
2022-12-05T14:32:46.605Z,7.24
2022-12-05T14:34:06.361Z,6.84
2022-12-05T14:35:19.548Z,6.39
2022-12-05T14:36:30.396Z,6.18
2022-12-05T14:37:37.631Z,6.50
2022-12-05T14:38:40.499Z,7.10
2022-12-05T14:39:51.727Z,7.66
2022-12-05T14:40:54.032Z,8.23
2022-12-05T14:42:02.139Z,8.63
2022-12-05T14:43:34.482Z,8.98
2022-12-05T14:44:36.791Z,9.35
2022-12-05T14:45:58.723Z,9.26
2022-12-05T14:47:05.710Z,8.68
2022-12-05T14:48:13.186Z,8.07
2022-12-05T14:49:37.785Z,7.53
2022-12-05T14:50:43.427Z,6.94
2022-12-05T14:51:57.151Z,6.59
2022-12-05T14:53:14.010Z,6.31
2022-12-05T14:54:18.966Z,6.60
2022-12-05T14:55:26.856Z,7.15
2022-12-05T14:56:29.085Z,7.75
2022-12-05T14:57:36.027Z,8.24
2022-12-05T14:58:46.023Z,8.71
2022-12-05T15:00:00.121Z,9.09
2022-12-05T15:01:26.764Z,9.42
2022-12-05T15:02:46.986Z,9.28
2022-12-05T15:04:24.404Z,8.67
2022-12-05T15:05:32.046Z,7.85
2022-12-05T15:06:48.137Z,7.38
2022-12-05T15:07:53.959Z,6.91
2022-12-05T15:09:28.652Z,6.56
2022-12-05T15:10:34.791Z,6.50
2022-12-05T15:11:38.993Z,7.02
2022-12-05T15:12:52.279Z,7.61
2022-12-05T15:14:07.940Z,8.23
2022-12-05T15:15:33.953Z,8.75
2022-12-05T15:16:42.541Z,9.25
2022-12-05T15:17:54.973Z,9.70
2022-12-05T15:19:02.132Z,9.77
2022-12-05T15:20:21.695Z,9.33
2022-12-05T15:21:28.567Z,8.61
2022-12-05T15:22:37.576Z,8.03
2022-12-05T15:23:46.240Z,7.52
2022-12-05T15:24:47.984Z,7.09
2022-12-05T15:25:57.192Z,6.76
2022-12-05T15:27:04.978Z,6.46
2022-12-05T15:28:19.522Z,6.68
2022-12-05T15:29:22.312Z,7.49
2022-12-05T15:30:24.243Z,8.27
2022-12-05T15:31:32.639Z,8.95
2022-12-05T15:32:34.672Z,9.57